sensor_id;sensor_type;location;lat;lon;timestamp;temperature;humidity
56725;DHT22;42608;52.776;6.968;2023-07-29T00:00:45;20.00;99.90
56725;DHT22;42608;52.776;6.968;2023-07-29T00:03:11;20.00;99.90
56725;DHT22;42608;52.776;6.968;2023-07-29T00:05:38;20.00;99.90
56725;DHT22;42608;52.776;6.968;2023-07-29T00:08:03;20.00;99.90
56725;DHT22;42608;52.776;6.968;2023-07-29T00:10:31;20.00;99.90
56725;DHT22;42608;52.776;6.968;2023-07-29T00:12:57;19.90;99.90
56725;DHT22;42608;52.776;6.968;2023-07-29T00:15:22;19.90;99.90
56725;DHT22;42608;52.776;6.968;2023-07-29T00:17:48;19.90;99.90
56725;DHT22;42608;52.776;6.968;2023-07-29T00:20:13;19.90;99.90
56725;DHT22;42608;52.776;6.968;2023-07-29T00:22:39;19.90;99.90
56725;DHT22;42608;52.776;6.968;2023-07-29T00:25:05;19.90;99.90
56725;DHT22;42608;52.776;6.968;2023-07-29T00:27:31;19.90;99.90
56725;DHT22;42608;52.776;6.968;2023-07-29T00:29:56;19.90;99.90
56725;DHT22;42608;52.776;6.968;2023-07-29T00:32:22;19.90;99.90
56725;DHT22;42608;52.776;6.968;2023-07-29T00:34:47;19.90;99.90
56725;DHT22;42608;52.776;6.968;2023-07-29T00:37:13;19.90;99.90
56725;DHT22;42608;52.776;6.968;2023-07-29T00:39:39;19.90;99.90
56725;DHT22;42608;52.776;6.968;2023-07-29T00:42:04;19.90;99.90
56725;DHT22;42608;52.776;6.968;2023-07-29T00:44:30;19.80;99.90
56725;DHT22;42608;52.776;6.968;2023-07-29T00:46:57;19.80;99.90
56725;DHT22;42608;52.776;6.968;2023-07-29T00:49:22;19.80;99.90
56725;DHT22;42608;52.776;6.968;2023-07-29T00:51:48;19.80;99.90
56725;DHT22;42608;52.776;6.968;2023-07-29T00:54:13;19.80;99.90
56725;DHT22;42608;52.776;6.968;2023-07-29T00:56:39;19.80;99.90
56725;DHT22;42608;52.776;6.968;2023-07-29T00:59:05;19.80;99.90
56725;DHT22;42608;52.776;6.968;2023-07-29T01:01:31;19.80;99.90
56725;DHT22;42608;52.776;6.968;2023-07-29T01:03:57;19.80;99.90
56725;DHT22;42608;52.776;6.968;2023-07-29T01:06:28;19.80;99.90
56725;DHT22;42608;52.776;6.968;2023-07-29T01:09:01;19.80;99.90
56725;DHT22;42608;52.776;6.968;2023-07-29T01:13:58;19.70;99.90
56725;DHT22;42608;52.776;6.968;2023-07-29T01:16:33;19.70;99.90
56725;DHT22;42608;52.776;6.968;2023-07-29T01:19:00;19.70;99.90
56725;DHT22;42608;52.776;6.968;2023-07-29T01:21:28;19.70;99.90
56725;DHT22;42608;52.776;6.968;2023-07-29T01:23:57;19.70;99.90
56725;DHT22;42608;52.776;6.968;2023-07-29T01:26:23;19.70;99.90
56725;DHT22;42608;52.776;6.968;2023-07-29T01:28:48;19.70;99.90
56725;DHT22;42608;52.776;6.968;2023-07-29T01:31:22;19.60;99.90
56725;DHT22;42608;52.776;6.968;2023-07-29T01:33:51;19.60;99.90
56725;DHT22;42608;52.776;6.968;2023-07-29T01:36:21;19.60;99.90
56725;DHT22;42608;52.776;6.968;2023-07-29T01:38:48;19.60;99.90
56725;DHT22;42608;52.776;6.968;2023-07-29T01:41:15;19.60;99.90
56725;DHT22;42608;52.776;6.968;2023-07-29T01:43:41;19.50;99.90
56725;DHT22;42608;52.776;6.968;2023-07-29T01:46:09;19.50;99.90
56725;DHT22;42608;52.776;6.968;2023-07-29T01:48:35;19.50;99.90
56725;DHT22;42608;52.776;6.968;2023-07-29T01:51:01;19.50;99.90
56725;DHT22;42608;52.776;6.968;2023-07-29T01:53:27;19.40;99.90
56725;DHT22;42608;52.776;6.968;2023-07-29T01:55:52;19.50;99.90
56725;DHT22;42608;52.776;6.968;2023-07-29T01:58:18;19.50;99.90
56725;DHT22;42608;52.776;6.968;2023-07-29T02:00:43;19.40;99.90
56725;DHT22;42608;52.776;6.968;2023-07-29T02:03:09;19.40;99.90
56725;DHT22;42608;52.776;6.968;2023-07-29T02:05:35;19.40;99.90
56725;DHT22;42608;52.776;6.968;2023-07-29T02:08:00;19.30;99.90
56725;DHT22;42608;52.776;6.968;2023-07-29T02:10:26;19.30;99.90
56725;DHT22;42608;52.776;6.968;2023-07-29T02:12:51;19.30;99.90
56725;DHT22;42608;52.776;6.968;2023-07-29T02:15:17;19.30;99.90
56725;DHT22;42608;52.776;6.968;2023-07-29T02:17:43;19.30;99.90
56725;DHT22;42608;52.776;6.968;2023-07-29T02:20:08;19.20;99.90
56725;DHT22;42608;52.776;6.968;2023-07-29T02:22:35;19.30;99.90
56725;DHT22;42608;52.776;6.968;2023-07-29T02:25:01;19.20;99.90
56725;DHT22;42608;52.776;6.968;2023-07-29T02:27:28;19.20;99.90
56725;DHT22;42608;52.776;6.968;2023-07-29T02:29:53;19.20;99.90
56725;DHT22;42608;52.776;6.968;2023-07-29T02:32:19;19.10;99.90
56725;DHT22;42608;52.776;6.968;2023-07-29T02:34:45;19.20;99.90
56725;DHT22;42608;52.776;6.968;2023-07-29T02:37:11;19.10;99.90
56725;DHT22;42608;52.776;6.968;2023-07-29T02:39:36;19.10;99.90
56725;DHT22;42608;52.776;6.968;2023-07-29T02:42:02;19.10;99.90
56725;DHT22;42608;52.776;6.968;2023-07-29T02:44:28;19.10;99.90
56725;DHT22;42608;52.776;6.968;2023-07-29T02:46:53;19.10;99.90
56725;DHT22;42608;52.776;6.968;2023-07-29T02:49:21;19.10;99.90
56725;DHT22;42608;52.776;6.968;2023-07-29T02:51:46;19.00;99.90
56725;DHT22;42608;52.776;6.968;2023-07-29T02:54:12;19.00;99.90
56725;DHT22;42608;52.776;6.968;2023-07-29T02:56:38;19.00;99.90
56725;DHT22;42608;52.776;6.968;2023-07-29T02:59:03;19.00;99.90
56725;DHT22;42608;52.776;6.968;2023-07-29T03:01:30;19.00;99.90
56725;DHT22;42608;52.776;6.968;2023-07-29T03:03:56;19.00;99.90
56725;DHT22;42608;52.776;6.968;2023-07-29T03:06:22;18.90;99.90
56725;DHT22;42608;52.776;6.968;2023-07-29T03:08:47;18.90;99.90
56725;DHT22;42608;52.776;6.968;2023-07-29T03:11:13;18.90;99.90
56725;DHT22;42608;52.776;6.968;2023-07-29T03:13:42;18.90;99.90
56725;DHT22;42608;52.776;6.968;2023-07-29T03:16:09;18.80;99.90
56725;DHT22;42608;52.776;6.968;2023-07-29T03:18:34;18.70;99.90
56725;DHT22;42608;52.776;6.968;2023-07-29T03:21:00;18.70;99.90
56725;DHT22;42608;52.776;6.968;2023-07-29T03:23:27;18.60;99.90
56725;DHT22;42608;52.776;6.968;2023-07-29T03:25:54;18.60;99.90
56725;DHT22;42608;52.776;6.968;2023-07-29T03:28:23;18.60;99.90
56725;DHT22;42608;52.776;6.968;2023-07-29T03:30:48;18.50;99.90
56725;DHT22;42608;52.776;6.968;2023-07-29T03:33:14;18.60;99.90
56725;DHT22;42608;52.776;6.968;2023-07-29T03:35:39;18.50;99.90
56725;DHT22;42608;52.776;6.968;2023-07-29T03:38:05;18.50;99.90
56725;DHT22;42608;52.776;6.968;2023-07-29T03:40:30;18.50;99.90
56725;DHT22;42608;52.776;6.968;2023-07-29T03:42:56;18.50;99.90
56725;DHT22;42608;52.776;6.968;2023-07-29T03:45:24;18.50;99.90
56725;DHT22;42608;52.776;6.968;2023-07-29T03:47:50;18.50;99.90
56725;DHT22;42608;52.776;6.968;2023-07-29T03:50:16;18.50;99.90
56725;DHT22;42608;52.776;6.968;2023-07-29T03:52:41;18.50;99.90
56725;DHT22;42608;52.776;6.968;2023-07-29T03:55:07;18.50;99.90
56725;DHT22;42608;52.776;6.968;2023-07-29T03:57:32;18.50;99.90
56725;DHT22;42608;52.776;6.968;2023-07-29T03:59:58;18.50;99.90
56725;DHT22;42608;52.776;6.968;2023-07-29T04:02:24;18.40;99.90
56725;DHT22;42608;52.776;6.968;2023-07-29T04:04:49;18.50;99.90
56725;DHT22;42608;52.776;6.968;2023-07-29T04:07:15;18.50;99.90
56725;DHT22;42608;52.776;6.968;2023-07-29T04:09:40;18.40;99.90
56725;DHT22;42608;52.776;6.968;2023-07-29T04:12:06;18.50;99.90
56725;DHT22;42608;52.776;6.968;2023-07-29T04:14:32;18.40;99.90
56725;DHT22;42608;52.776;6.968;2023-07-29T04:16:57;18.40;99.90
56725;DHT22;42608;52.776;6.968;2023-07-29T04:19:32;18.40;99.90
56725;DHT22;42608;52.776;6.968;2023-07-29T04:21:57;18.40;99.90
56725;DHT22;42608;52.776;6.968;2023-07-29T04:24:23;18.40;99.90
56725;DHT22;42608;52.776;6.968;2023-07-29T04:26:49;18.40;99.90
56725;DHT22;42608;52.776;6.968;2023-07-29T04:29:14;18.40;99.90
56725;DHT22;42608;52.776;6.968;2023-07-29T04:31:40;18.40;99.90
56725;DHT22;42608;52.776;6.968;2023-07-29T04:34:06;18.40;99.90
56725;DHT22;42608;52.776;6.968;2023-07-29T04:36:31;18.40;99.90
56725;DHT22;42608;52.776;6.968;2023-07-29T04:38:57;18.40;99.90
56725;DHT22;42608;52.776;6.968;2023-07-29T04:41:22;18.40;99.90
56725;DHT22;42608;52.776;6.968;2023-07-29T04:43:48;18.40;99.90
56725;DHT22;42608;52.776;6.968;2023-07-29T04:46:15;18.40;99.90
56725;DHT22;42608;52.776;6.968;2023-07-29T04:48:40;18.40;99.90
56725;DHT22;42608;52.776;6.968;2023-07-29T04:51:08;18.40;99.90
56725;DHT22;42608;52.776;6.968;2023-07-29T04:53:34;18.40;99.90
56725;DHT22;42608;52.776;6.968;2023-07-29T04:56:02;18.40;99.90
56725;DHT22;42608;52.776;6.968;2023-07-29T04:58:28;18.40;99.90
56725;DHT22;42608;52.776;6.968;2023-07-29T05:00:55;18.40;99.90
56725;DHT22;42608;52.776;6.968;2023-07-29T05:03:20;18.30;99.90
56725;DHT22;42608;52.776;6.968;2023-07-29T05:05:46;18.40;99.90
56725;DHT22;42608;52.776;6.968;2023-07-29T05:08:12;18.40;99.90
56725;DHT22;42608;52.776;6.968;2023-07-29T05:10:37;18.30;99.90
56725;DHT22;42608;52.776;6.968;2023-07-29T05:13:03;18.30;99.90
56725;DHT22;42608;52.776;6.968;2023-07-29T05:15:28;18.40;99.90
56725;DHT22;42608;52.776;6.968;2023-07-29T05:17:54;18.40;99.90
56725;DHT22;42608;52.776;6.968;2023-07-29T05:20:19;18.30;99.90
56725;DHT22;42608;52.776;6.968;2023-07-29T05:22:45;18.30;99.90
56725;DHT22;42608;52.776;6.968;2023-07-29T05:25:10;18.30;99.90
56725;DHT22;42608;52.776;6.968;2023-07-29T05:27:36;18.30;99.90
56725;DHT22;42608;52.776;6.968;2023-07-29T05:30:02;18.30;99.90
56725;DHT22;42608;52.776;6.968;2023-07-29T05:32:27;18.30;99.90
56725;DHT22;42608;52.776;6.968;2023-07-29T05:34:53;18.30;99.90
56725;DHT22;42608;52.776;6.968;2023-07-29T05:37:18;18.30;99.90
56725;DHT22;42608;52.776;6.968;2023-07-29T05:39:47;18.30;99.90
56725;DHT22;42608;52.776;6.968;2023-07-29T05:42:12;18.30;99.90
56725;DHT22;42608;52.776;6.968;2023-07-29T05:44:38;18.30;99.90
56725;DHT22;42608;52.776;6.968;2023-07-29T05:47:03;18.30;99.90
56725;DHT22;42608;52.776;6.968;2023-07-29T05:49:29;18.40;99.90
56725;DHT22;42608;52.776;6.968;2023-07-29T05:51:54;18.40;99.90
56725;DHT22;42608;52.776;6.968;2023-07-29T05:54:20;18.40;99.90
56725;DHT22;42608;52.776;6.968;2023-07-29T05:56:46;18.40;99.90
56725;DHT22;42608;52.776;6.968;2023-07-29T05:59:11;18.40;99.90
56725;DHT22;42608;52.776;6.968;2023-07-29T06:01:37;18.40;99.90
56725;DHT22;42608;52.776;6.968;2023-07-29T06:04:02;18.40;99.90
56725;DHT22;42608;52.776;6.968;2023-07-29T06:06:28;18.40;99.90
56725;DHT22;42608;52.776;6.968;2023-07-29T06:08:53;18.40;99.90
56725;DHT22;42608;52.776;6.968;2023-07-29T06:11:19;18.40;99.90
56725;DHT22;42608;52.776;6.968;2023-07-29T06:13:45;18.40;99.90
56725;DHT22;42608;52.776;6.968;2023-07-29T06:16:11;18.40;99.90
56725;DHT22;42608;52.776;6.968;2023-07-29T06:18:36;18.30;99.90
56725;DHT22;42608;52.776;6.968;2023-07-29T06:21:02;18.30;99.90
56725;DHT22;42608;52.776;6.968;2023-07-29T06:23:30;18.30;99.90
56725;DHT22;42608;52.776;6.968;2023-07-29T06:25:56;18.40;99.90
56725;DHT22;42608;52.776;6.968;2023-07-29T06:28:21;18.40;99.90
56725;DHT22;42608;52.776;6.968;2023-07-29T06:30:47;18.40;99.90
56725;DHT22;42608;52.776;6.968;2023-07-29T06:33:12;18.40;99.90
56725;DHT22;42608;52.776;6.968;2023-07-29T06:35:41;18.50;99.90
56725;DHT22;42608;52.776;6.968;2023-07-29T06:38:06;18.50;99.90
56725;DHT22;42608;52.776;6.968;2023-07-29T06:40:32;18.50;99.90
56725;DHT22;42608;52.776;6.968;2023-07-29T06:42:58;18.50;99.90
56725;DHT22;42608;52.776;6.968;2023-07-29T06:45:23;18.50;99.90
56725;DHT22;42608;52.776;6.968;2023-07-29T06:47:49;18.60;99.90
56725;DHT22;42608;52.776;6.968;2023-07-29T06:50:14;18.50;99.90
56725;DHT22;42608;52.776;6.968;2023-07-29T06:52:40;18.50;99.90
56725;DHT22;42608;52.776;6.968;2023-07-29T06:55:06;18.50;99.90
56725;DHT22;42608;52.776;6.968;2023-07-29T06:57:34;18.50;99.90
56725;DHT22;42608;52.776;6.968;2023-07-29T07:00:00;18.60;99.90
56725;DHT22;42608;52.776;6.968;2023-07-29T07:02:25;18.60;99.90
56725;DHT22;42608;52.776;6.968;2023-07-29T07:04:51;18.60;99.90
56725;DHT22;42608;52.776;6.968;2023-07-29T07:07:16;18.60;99.90
56725;DHT22;42608;52.776;6.968;2023-07-29T07:09:42;18.70;99.90
56725;DHT22;42608;52.776;6.968;2023-07-29T07:12:08;18.70;99.90
56725;DHT22;42608;52.776;6.968;2023-07-29T07:14:33;18.70;99.90
56725;DHT22;42608;52.776;6.968;2023-07-29T07:17:02;18.80;99.90
56725;DHT22;42608;52.776;6.968;2023-07-29T07:19:27;18.70;99.90
56725;DHT22;42608;52.776;6.968;2023-07-29T07:21:53;18.80;99.90
56725;DHT22;42608;52.776;6.968;2023-07-29T07:24:19;18.80;99.90
56725;DHT22;42608;52.776;6.968;2023-07-29T07:26:44;18.80;99.90
56725;DHT22;42608;52.776;6.968;2023-07-29T07:29:10;18.80;99.90
56725;DHT22;42608;52.776;6.968;2023-07-29T07:31:35;18.80;99.90
56725;DHT22;42608;52.776;6.968;2023-07-29T07:34:01;18.80;99.90
56725;DHT22;42608;52.776;6.968;2023-07-29T07:36:29;18.90;99.90
56725;DHT22;42608;52.776;6.968;2023-07-29T07:38:55;18.90;99.90
56725;DHT22;42608;52.776;6.968;2023-07-29T07:41:21;18.90;99.90
56725;DHT22;42608;52.776;6.968;2023-07-29T07:43:47;18.90;99.90
56725;DHT22;42608;52.776;6.968;2023-07-29T07:46:12;18.90;99.90
56725;DHT22;42608;52.776;6.968;2023-07-29T07:48:38;18.90;99.90
56725;DHT22;42608;52.776;6.968;2023-07-29T07:51:13;19.00;99.90
56725;DHT22;42608;52.776;6.968;2023-07-29T07:53:38;19.00;99.90
56725;DHT22;42608;52.776;6.968;2023-07-29T07:56:05;19.00;99.90
56725;DHT22;42608;52.776;6.968;2023-07-29T07:58:31;19.00;99.90
56725;DHT22;42608;52.776;6.968;2023-07-29T08:01:06;19.10;99.90
56725;DHT22;42608;52.776;6.968;2023-07-29T08:03:32;19.10;99.90
56725;DHT22;42608;52.776;6.968;2023-07-29T08:05:58;19.20;99.90
56725;DHT22;42608;52.776;6.968;2023-07-29T08:08:24;19.20;99.90
56725;DHT22;42608;52.776;6.968;2023-07-29T08:10:50;19.20;99.90
56725;DHT22;42608;52.776;6.968;2023-07-29T08:13:15;19.20;99.90
56725;DHT22;42608;52.776;6.968;2023-07-29T08:15:41;19.30;99.90
56725;DHT22;42608;52.776;6.968;2023-07-29T08:18:07;19.30;99.90
56725;DHT22;42608;52.776;6.968;2023-07-29T08:20:32;19.30;99.90
56725;DHT22;42608;52.776;6.968;2023-07-29T08:22:58;19.40;99.90
56725;DHT22;42608;52.776;6.968;2023-07-29T08:25:23;19.50;99.90
56725;DHT22;42608;52.776;6.968;2023-07-29T08:27:49;19.60;99.90
56725;DHT22;42608;52.776;6.968;2023-07-29T08:30:15;19.50;99.90
56725;DHT22;42608;52.776;6.968;2023-07-29T08:32:41;19.60;99.90
56725;DHT22;42608;52.776;6.968;2023-07-29T08:35:07;19.60;99.90
56725;DHT22;42608;52.776;6.968;2023-07-29T08:37:33;19.60;99.90
56725;DHT22;42608;52.776;6.968;2023-07-29T08:40:05;19.70;99.90
56725;DHT22;42608;52.776;6.968;2023-07-29T08:42:31;19.60;99.90
56725;DHT22;42608;52.776;6.968;2023-07-29T08:45:01;19.60;99.90
56725;DHT22;42608;52.776;6.968;2023-07-29T08:47:31;19.60;99.90
56725;DHT22;42608;52.776;6.968;2023-07-29T08:49:56;19.60;99.90
56725;DHT22;42608;52.776;6.968;2023-07-29T08:52:23;19.70;99.90
56725;DHT22;42608;52.776;6.968;2023-07-29T08:54:49;19.70;99.90
56725;DHT22;42608;52.776;6.968;2023-07-29T08:57:16;19.70;99.90
56725;DHT22;42608;52.776;6.968;2023-07-29T08:59:42;19.70;99.90
56725;DHT22;42608;52.776;6.968;2023-07-29T09:02:07;19.70;99.90
56725;DHT22;42608;52.776;6.968;2023-07-29T09:04:33;19.70;99.90
56725;DHT22;42608;52.776;6.968;2023-07-29T09:06:59;19.80;99.90
56725;DHT22;42608;52.776;6.968;2023-07-29T09:09:25;19.70;99.90
56725;DHT22;42608;52.776;6.968;2023-07-29T09:11:51;19.80;99.90
56725;DHT22;42608;52.776;6.968;2023-07-29T09:14:17;19.80;99.90
56725;DHT22;42608;52.776;6.968;2023-07-29T09:16:42;19.90;99.90
56725;DHT22;42608;52.776;6.968;2023-07-29T09:19:08;20.00;99.90
56725;DHT22;42608;52.776;6.968;2023-07-29T09:21:43;20.00;99.90
56725;DHT22;42608;52.776;6.968;2023-07-29T09:24:12;20.10;99.90
56725;DHT22;42608;52.776;6.968;2023-07-29T09:26:41;20.20;99.90
56725;DHT22;42608;52.776;6.968;2023-07-29T09:29:13;20.20;99.90
56725;DHT22;42608;52.776;6.968;2023-07-29T09:31:39;20.30;99.90
56725;DHT22;42608;52.776;6.968;2023-07-29T09:34:04;20.40;99.90
56725;DHT22;42608;52.776;6.968;2023-07-29T09:36:31;20.40;99.90
56725;DHT22;42608;52.776;6.968;2023-07-29T09:38:57;20.50;99.90
56725;DHT22;42608;52.776;6.968;2023-07-29T09:41:23;20.50;99.90
56725;DHT22;42608;52.776;6.968;2023-07-29T09:43:51;20.50;99.90
56725;DHT22;42608;52.776;6.968;2023-07-29T09:46:22;20.60;99.90
56725;DHT22;42608;52.776;6.968;2023-07-29T09:48:47;20.70;99.90
56725;DHT22;42608;52.776;6.968;2023-07-29T09:51:15;20.80;99.90
56725;DHT22;42608;52.776;6.968;2023-07-29T09:53:45;20.90;99.90
56725;DHT22;42608;52.776;6.968;2023-07-29T09:56:11;20.90;99.90
56725;DHT22;42608;52.776;6.968;2023-07-29T09:58:37;20.90;99.90
56725;DHT22;42608;52.776;6.968;2023-07-29T10:01:06;21.00;99.90
56725;DHT22;42608;52.776;6.968;2023-07-29T10:03:33;21.00;99.90
56725;DHT22;42608;52.776;6.968;2023-07-29T10:06:00;21.10;99.90
56725;DHT22;42608;52.776;6.968;2023-07-29T10:08:25;21.10;99.90
56725;DHT22;42608;52.776;6.968;2023-07-29T10:10:51;21.10;99.90
56725;DHT22;42608;52.776;6.968;2023-07-29T10:13:20;21.10;99.90
56725;DHT22;42608;52.776;6.968;2023-07-29T10:15:46;21.20;99.90
56725;DHT22;42608;52.776;6.968;2023-07-29T10:18:12;21.20;99.90
56725;DHT22;42608;52.776;6.968;2023-07-29T10:20:37;21.30;99.90
56725;DHT22;42608;52.776;6.968;2023-07-29T10:23:04;21.40;99.90
56725;DHT22;42608;52.776;6.968;2023-07-29T10:25:38;21.50;99.90
56725;DHT22;42608;52.776;6.968;2023-07-29T10:28:06;21.40;99.90
56725;DHT22;42608;52.776;6.968;2023-07-29T10:30:32;21.40;99.90
56725;DHT22;42608;52.776;6.968;2023-07-29T10:32:58;21.50;99.90
56725;DHT22;42608;52.776;6.968;2023-07-29T10:35:26;21.50;99.90
56725;DHT22;42608;52.776;6.968;2023-07-29T10:37:52;21.60;99.90
56725;DHT22;42608;52.776;6.968;2023-07-29T10:40:18;21.70;99.90
56725;DHT22;42608;52.776;6.968;2023-07-29T10:43:01;21.70;99.90
56725;DHT22;42608;52.776;6.968;2023-07-29T10:45:39;21.80;99.90
56725;DHT22;42608;52.776;6.968;2023-07-29T10:48:05;21.70;99.90
56725;DHT22;42608;52.776;6.968;2023-07-29T10:50:31;21.70;99.90
56725;DHT22;42608;52.776;6.968;2023-07-29T10:52:57;21.70;99.90
56725;DHT22;42608;52.776;6.968;2023-07-29T10:55:30;21.80;99.90
56725;DHT22;42608;52.776;6.968;2023-07-29T10:58:13;21.70;99.90
56725;DHT22;42608;52.776;6.968;2023-07-29T11:00:41;21.70;99.90
56725;DHT22;42608;52.776;6.968;2023-07-29T11:03:06;21.70;99.90
56725;DHT22;42608;52.776;6.968;2023-07-29T11:05:51;21.80;99.90
56725;DHT22;42608;52.776;6.968;2023-07-29T11:11:06;21.90;99.90
56725;DHT22;42608;52.776;6.968;2023-07-29T11:13:32;22.00;99.90
56725;DHT22;42608;52.776;6.968;2023-07-29T11:15:58;22.00;99.90
56725;DHT22;42608;52.776;6.968;2023-07-29T11:18:28;22.00;99.90
56725;DHT22;42608;52.776;6.968;2023-07-29T11:20:54;22.10;99.90
56725;DHT22;42608;52.776;6.968;2023-07-29T11:23:26;22.00;99.90
56725;DHT22;42608;52.776;6.968;2023-07-29T11:25:52;22.00;99.90
56725;DHT22;42608;52.776;6.968;2023-07-29T11:28:18;22.00;99.90
56725;DHT22;42608;52.776;6.968;2023-07-29T11:30:43;22.00;99.90
56725;DHT22;42608;52.776;6.968;2023-07-29T11:33:09;22.10;99.90
56725;DHT22;42608;52.776;6.968;2023-07-29T11:35:35;22.00;99.90
56725;DHT22;42608;52.776;6.968;2023-07-29T11:38:00;22.10;99.90
56725;DHT22;42608;52.776;6.968;2023-07-29T11:40:26;22.00;99.90
56725;DHT22;42608;52.776;6.968;2023-07-29T11:42:52;22.10;99.90
56725;DHT22;42608;52.776;6.968;2023-07-29T11:45:18;22.10;99.90
56725;DHT22;42608;52.776;6.968;2023-07-29T11:47:47;22.10;99.90
56725;DHT22;42608;52.776;6.968;2023-07-29T11:50:13;22.20;99.90
56725;DHT22;42608;52.776;6.968;2023-07-29T11:52:40;22.20;99.90
56725;DHT22;42608;52.776;6.968;2023-07-29T11:55:06;22.30;99.90
56725;DHT22;42608;52.776;6.968;2023-07-29T11:57:35;22.40;99.90
56725;DHT22;42608;52.776;6.968;2023-07-29T12:00:02;22.50;99.90
56725;DHT22;42608;52.776;6.968;2023-07-29T12:02:28;22.40;99.90
56725;DHT22;42608;52.776;6.968;2023-07-29T12:04:54;22.40;99.90
56725;DHT22;42608;52.776;6.968;2023-07-29T12:07:20;22.40;99.90
56725;DHT22;42608;52.776;6.968;2023-07-29T12:09:46;22.20;99.90
56725;DHT22;42608;52.776;6.968;2023-07-29T12:12:12;22.10;99.90
56725;DHT22;42608;52.776;6.968;2023-07-29T12:14:38;22.00;99.90
56725;DHT22;42608;52.776;6.968;2023-07-29T12:17:04;21.90;99.90
56725;DHT22;42608;52.776;6.968;2023-07-29T12:19:33;21.90;99.90
56725;DHT22;42608;52.776;6.968;2023-07-29T12:22:00;21.80;99.90
56725;DHT22;42608;52.776;6.968;2023-07-29T12:24:26;21.90;99.90
56725;DHT22;42608;52.776;6.968;2023-07-29T12:26:52;22.00;99.90
56725;DHT22;42608;52.776;6.968;2023-07-29T12:29:18;22.00;99.90
56725;DHT22;42608;52.776;6.968;2023-07-29T12:31:47;22.10;99.90
56725;DHT22;42608;52.776;6.968;2023-07-29T12:34:19;22.20;99.90
56725;DHT22;42608;52.776;6.968;2023-07-29T12:36:46;22.30;99.90
56725;DHT22;42608;52.776;6.968;2023-07-29T12:39:15;22.40;99.90
56725;DHT22;42608;52.776;6.968;2023-07-29T12:41:44;22.40;99.90
56725;DHT22;42608;52.776;6.968;2023-07-29T12:44:09;22.50;99.90
56725;DHT22;42608;52.776;6.968;2023-07-29T12:46:35;22.50;99.90
56725;DHT22;42608;52.776;6.968;2023-07-29T12:49:00;22.50;99.90
56725;DHT22;42608;52.776;6.968;2023-07-29T12:51:26;22.40;99.90
56725;DHT22;42608;52.776;6.968;2023-07-29T12:53:53;22.30;99.90
56725;DHT22;42608;52.776;6.968;2023-07-29T12:56:20;22.20;99.90
56725;DHT22;42608;52.776;6.968;2023-07-29T12:58:45;22.20;99.90
56725;DHT22;42608;52.776;6.968;2023-07-29T13:01:11;22.30;99.90
56725;DHT22;42608;52.776;6.968;2023-07-29T13:03:43;22.40;99.90
56725;DHT22;42608;52.776;6.968;2023-07-29T13:06:08;22.50;99.90
56725;DHT22;42608;52.776;6.968;2023-07-29T13:08:34;22.50;99.90
56725;DHT22;42608;52.776;6.968;2023-07-29T13:10:59;22.50;99.90
56725;DHT22;42608;52.776;6.968;2023-07-29T13:13:25;22.40;99.90
56725;DHT22;42608;52.776;6.968;2023-07-29T13:15:51;22.40;99.90
56725;DHT22;42608;52.776;6.968;2023-07-29T13:18:16;22.30;99.90
56725;DHT22;42608;52.776;6.968;2023-07-29T13:20:42;22.30;99.90
56725;DHT22;42608;52.776;6.968;2023-07-29T13:23:07;22.20;99.90
56725;DHT22;42608;52.776;6.968;2023-07-29T13:25:33;22.20;99.90
56725;DHT22;42608;52.776;6.968;2023-07-29T13:27:58;22.10;99.90
56725;DHT22;42608;52.776;6.968;2023-07-29T13:30:24;22.10;99.90
56725;DHT22;42608;52.776;6.968;2023-07-29T13:32:50;22.10;99.90
56725;DHT22;42608;52.776;6.968;2023-07-29T13:35:15;22.10;99.90
56725;DHT22;42608;52.776;6.968;2023-07-29T13:37:41;22.10;99.90
56725;DHT22;42608;52.776;6.968;2023-07-29T13:40:06;22.10;99.90
56725;DHT22;42608;52.776;6.968;2023-07-29T13:42:35;22.30;99.90
56725;DHT22;42608;52.776;6.968;2023-07-29T13:45:01;22.50;99.90
56725;DHT22;42608;52.776;6.968;2023-07-29T13:47:27;22.60;99.90
56725;DHT22;42608;52.776;6.968;2023-07-29T13:49:52;22.60;99.90
56725;DHT22;42608;52.776;6.968;2023-07-29T13:52:18;22.60;99.90
56725;DHT22;42608;52.776;6.968;2023-07-29T13:54:47;22.60;99.90
56725;DHT22;42608;52.776;6.968;2023-07-29T13:57:12;22.50;99.90
56725;DHT22;42608;52.776;6.968;2023-07-29T13:59:41;22.60;99.90
56725;DHT22;42608;52.776;6.968;2023-07-29T14:02:06;22.80;99.90
56725;DHT22;42608;52.776;6.968;2023-07-29T14:04:33;23.00;99.90
56725;DHT22;42608;52.776;6.968;2023-07-29T14:06:58;23.10;99.90
56725;DHT22;42608;52.776;6.968;2023-07-29T14:09:24;23.20;99.90
56725;DHT22;42608;52.776;6.968;2023-07-29T14:11:51;23.10;99.90
56725;DHT22;42608;52.776;6.968;2023-07-29T14:14:16;23.00;99.90
56725;DHT22;42608;52.776;6.968;2023-07-29T14:16:42;23.10;99.90
56725;DHT22;42608;52.776;6.968;2023-07-29T14:19:08;23.30;99.90
56725;DHT22;42608;52.776;6.968;2023-07-29T14:21:33;23.20;99.90
56725;DHT22;42608;52.776;6.968;2023-07-29T14:24:02;23.00;99.90
56725;DHT22;42608;52.776;6.968;2023-07-29T14:26:27;22.90;99.90
56725;DHT22;42608;52.776;6.968;2023-07-29T14:28:53;22.80;99.90
56725;DHT22;42608;52.776;6.968;2023-07-29T14:31:19;22.60;99.90
56725;DHT22;42608;52.776;6.968;2023-07-29T14:33:44;22.40;99.90
56725;DHT22;42608;52.776;6.968;2023-07-29T14:36:13;22.20;99.90
56725;DHT22;42608;52.776;6.968;2023-07-29T14:38:38;22.00;99.90
56725;DHT22;42608;52.776;6.968;2023-07-29T14:41:04;21.90;99.90
56725;DHT22;42608;52.776;6.968;2023-07-29T14:43:30;21.80;99.90
56725;DHT22;42608;52.776;6.968;2023-07-29T14:45:58;21.70;99.90
56725;DHT22;42608;52.776;6.968;2023-07-29T14:48:24;21.60;99.90
56725;DHT22;42608;52.776;6.968;2023-07-29T14:50:49;21.60;99.90
56725;DHT22;42608;52.776;6.968;2023-07-29T14:53:15;21.50;99.90
56725;DHT22;42608;52.776;6.968;2023-07-29T14:55:40;21.50;99.90
56725;DHT22;42608;52.776;6.968;2023-07-29T14:58:06;21.40;99.90
56725;DHT22;42608;52.776;6.968;2023-07-29T15:00:32;21.30;99.90
56725;DHT22;42608;52.776;6.968;2023-07-29T15:02:58;21.20;99.90
56725;DHT22;42608;52.776;6.968;2023-07-29T15:05:24;21.20;99.90
56725;DHT22;42608;52.776;6.968;2023-07-29T15:07:49;21.10;99.90
56725;DHT22;42608;52.776;6.968;2023-07-29T15:10:15;21.10;99.90
56725;DHT22;42608;52.776;6.968;2023-07-29T15:12:41;21.00;99.90
56725;DHT22;42608;52.776;6.968;2023-07-29T15:15:07;20.80;99.90
56725;DHT22;42608;52.776;6.968;2023-07-29T15:17:33;20.70;99.90
56725;DHT22;42608;52.776;6.968;2023-07-29T15:19:58;20.40;99.90
56725;DHT22;42608;52.776;6.968;2023-07-29T15:22:24;20.20;99.90
56725;DHT22;42608;52.776;6.968;2023-07-29T15:24:49;20.00;99.90
56725;DHT22;42608;52.776;6.968;2023-07-29T15:27:15;19.90;99.90
56725;DHT22;42608;52.776;6.968;2023-07-29T15:29:41;19.90;99.90